createdAt,value
2019-04-04T00:01:48.917Z,5.00
2019-04-04T00:04:22.174Z,3.80
2019-04-04T00:06:57.827Z,5.00
2019-04-04T00:09:29.353Z,3.00
2019-04-04T00:12:01.709Z,4.80
2019-04-04T00:14:34.057Z,5.00
2019-04-04T00:17:06.390Z,5.00
2019-04-04T00:19:38.931Z,4.20
2019-04-04T00:22:12.297Z,4.20
2019-04-04T00:24:44.670Z,3.40
2019-04-04T00:27:18.282Z,3.00
2019-04-04T00:29:50.654Z,3.20
2019-04-04T00:32:23.322Z,3.60
2019-04-04T00:34:55.801Z,4.00
2019-04-04T00:37:28.259Z,3.20
2019-04-04T00:40:00.773Z,3.00
2019-04-04T00:42:33.554Z,2.80
2019-04-04T00:45:07.805Z,3.00
2019-04-04T00:47:40.499Z,3.20
2019-04-04T00:50:13.280Z,3.00
2019-04-04T00:52:45.719Z,4.00
2019-04-04T00:55:18.056Z,5.00
2019-04-04T00:57:50.750Z,3.80
2019-04-04T01:00:24.022Z,1.40
2019-04-04T01:02:58.291Z,3.00
2019-04-04T01:05:32.054Z,3.20
2019-04-04T01:08:06.642Z,2.00
2019-04-04T01:10:38.473Z,0.00
2019-04-04T01:13:10.807Z,3.00
2019-04-04T01:15:43.467Z,3.00
2019-04-04T01:18:16.178Z,3.80
2019-04-04T01:20:50.472Z,2.00
2019-04-04T01:23:22.989Z,3.00
2019-04-04T01:25:55.460Z,3.00
2019-04-04T01:28:27.822Z,3.00
2019-04-04T01:31:00.623Z,2.60
2019-04-04T01:33:34.593Z,2.00
2019-04-04T01:36:07.418Z,1.40
2019-04-04T01:38:39.806Z,1.00
2019-04-04T01:41:12.676Z,0.80
2019-04-04T01:43:44.990Z,1.00
2019-04-04T01:46:18.542Z,0.60
2019-04-04T01:48:51.239Z,0.00
2019-04-04T01:51:25.422Z,1.60
2019-04-04T01:54:00.863Z,1.00
2019-04-04T01:56:32.770Z,1.00
2019-04-04T01:59:05.597Z,1.00
2019-04-04T02:01:37.946Z,1.00
2019-04-04T02:04:10.263Z,1.00
2019-04-04T02:06:42.643Z,0.00
2019-04-04T02:09:15.240Z,0.00
2019-04-04T02:11:48.236Z,0.00
2019-04-04T02:14:20.594Z,1.00
2019-04-04T02:16:53.082Z,0.00
2019-04-04T02:19:25.497Z,0.20
2019-04-04T02:21:59.843Z,0.60
2019-04-04T02:24:32.514Z,0.60
2019-04-04T02:27:07.007Z,0.00
2019-04-04T02:29:39.896Z,0.80
2019-04-04T02:32:14.613Z,0.20
2019-04-04T02:34:46.998Z,1.00
2019-04-04T02:37:21.375Z,0.40
2019-04-04T02:39:53.656Z,1.00
2019-04-04T02:42:26.383Z,1.00
2019-04-04T02:44:59.225Z,0.40
2019-04-04T02:47:32.851Z,2.60
2019-04-04T02:50:06.852Z,0.00
2019-04-04T02:52:39.339Z,0.00
2019-04-04T02:55:11.917Z,0.00
2019-04-04T02:57:44.314Z,1.60
2019-04-04T03:00:17.362Z,1.00
2019-04-04T03:02:49.857Z,0.00
2019-04-04T03:05:22.651Z,0.00
2019-04-04T03:07:55.454Z,0.00
2019-04-04T03:10:29.096Z,0.20
2019-04-04T03:13:02.182Z,2.00
2019-04-04T03:15:35.015Z,1.00
2019-04-04T03:18:07.719Z,1.00
2019-04-04T03:20:40.393Z,1.00
2019-04-04T03:23:13.006Z,12.00
2019-04-04T03:25:47.275Z,61.50
2019-04-04T03:28:19.771Z,124.75
2019-04-04T03:31:01.319Z,257.75
2019-04-04T03:33:31.246Z,340.60
2019-04-04T03:36:01.021Z,366.60
2019-04-04T03:38:33.693Z,312.50
2019-04-04T03:41:07.031Z,322.00
2019-04-04T03:43:39.307Z,326.00
2019-04-04T03:46:11.952Z,340.00
2019-04-04T03:48:44.140Z,339.20
2019-04-04T03:51:16.967Z,325.00
2019-04-04T03:53:53.598Z,323.40
2019-04-04T03:56:26.255Z,324.80
2019-04-04T03:59:00.169Z,315.75
2019-04-04T04:01:32.491Z,310.50
2019-04-04T04:04:04.699Z,305.25
2019-04-04T04:06:41.262Z,317.75
2019-04-04T04:09:11.169Z,294.00
2019-04-04T04:11:43.994Z,310.50
2019-04-04T04:14:16.850Z,278.25
2019-04-04T04:16:49.850Z,236.50
2019-04-04T04:19:24.498Z,199.50
2019-04-04T04:21:56.321Z,169.00
2019-04-04T04:24:29.607Z,134.25
2019-04-04T04:27:02.642Z,121.50
2019-04-04T04:29:35.119Z,104.50
2019-04-04T04:32:07.626Z,105.25
2019-04-04T04:34:40.258Z,120.75
2019-04-04T04:37:12.617Z,117.75
2019-04-04T04:39:44.964Z,114.75
2019-04-04T04:42:20.820Z,120.75
2019-04-04T04:44:51.117Z,121.50
2019-04-04T04:47:24.154Z,109.25
2019-04-04T04:49:56.887Z,118.25
2019-04-04T04:52:29.555Z,116.50
2019-04-04T04:55:01.820Z,118.50
2019-04-04T04:57:36.636Z,118.00
2019-04-04T05:00:08.559Z,116.50
2019-04-04T05:02:40.789Z,109.25
2019-04-04T05:05:13.567Z,112.25
2019-04-04T05:07:46.426Z,107.50
2019-04-04T05:10:19.067Z,104.25
2019-04-04T05:12:53.129Z,107.25
2019-04-04T05:15:25.639Z,100.75
2019-04-04T05:17:58.357Z,103.00
2019-04-04T05:20:30.886Z,96.75
2019-04-04T05:23:03.663Z,103.00
2019-04-04T05:25:49.683Z,100.75
2019-04-04T05:28:11.467Z,100.50
2019-04-04T05:30:45.079Z,98.00
2019-04-04T05:33:18.620Z,93.50
2019-04-04T05:35:51.337Z,98.25
2019-04-04T05:38:23.880Z,98.25
2019-04-04T05:40:56.729Z,96.00
2019-04-04T05:43:29.437Z,94.50
2019-04-04T05:46:02.062Z,90.25
2019-04-04T05:48:34.774Z,91.25
2019-04-04T05:51:07.216Z,87.00
2019-04-04T05:53:41.193Z,84.75
2019-04-04T05:56:15.219Z,81.00
2019-04-04T05:58:48.370Z,82.00
2019-04-04T06:01:22.343Z,90.00
2019-04-04T06:03:55.081Z,81.75
2019-04-04T06:06:27.528Z,87.25
2019-04-04T06:09:00.004Z,82.50
2019-04-04T06:11:32.339Z,88.00
2019-04-04T06:14:04.616Z,82.00
2019-04-04T06:16:36.756Z,80.25
2019-04-04T06:19:09.268Z,80.00
2019-04-04T06:21:41.434Z,78.50
2019-04-04T06:24:13.606Z,79.50
2019-04-04T06:26:45.758Z,77.25
2019-04-04T06:29:18.378Z,75.00
2019-04-04T06:31:50.532Z,80.25
2019-04-04T06:34:24.098Z,76.75
2019-04-04T06:36:56.406Z,76.50
2019-04-04T06:39:28.591Z,77.25
2019-04-04T06:42:02.892Z,76.25
2019-04-04T06:44:34.731Z,75.00
2019-04-04T06:47:07.080Z,75.50
2019-04-04T06:49:39.567Z,71.25
2019-04-04T06:52:11.814Z,73.75
2019-04-04T06:54:45.352Z,73.75
2019-04-04T06:57:17.474Z,73.50
2019-04-04T06:59:51.292Z,69.00
2019-04-04T07:02:24.028Z,72.50
2019-04-04T07:04:56.788Z,71.50
2019-04-04T07:07:28.935Z,72.50
2019-04-04T07:10:01.189Z,72.50
2019-04-04T07:12:33.435Z,70.00
2019-04-04T07:15:07.292Z,68.25
2019-04-04T07:17:40.379Z,71.25
2019-04-04T07:20:16.685Z,68.00
2019-04-04T07:22:48.525Z,67.25
2019-04-04T07:25:20.704Z,68.25
2019-04-04T07:27:53.071Z,69.75
2019-04-04T07:30:28.020Z,67.25
2019-04-04T07:32:59.019Z,63.50
2019-04-04T07:35:31.197Z,65.75
2019-04-04T07:38:03.429Z,68.25
2019-04-04T07:40:37.440Z,63.75
2019-04-04T07:43:09.914Z,65.25
2019-04-04T07:45:42.081Z,67.25
2019-04-04T07:48:17.697Z,66.50
2019-04-04T07:50:51.222Z,63.50
2019-04-04T07:53:21.965Z,63.50
2019-04-04T07:55:54.703Z,66.00
2019-04-04T07:58:26.867Z,62.75
2019-04-04T08:00:59.451Z,62.75
2019-04-04T08:03:32.837Z,63.25
2019-04-04T08:06:05.106Z,58.00
2019-04-04T08:08:37.272Z,64.00
2019-04-04T08:11:09.518Z,63.50
2019-04-04T08:13:41.652Z,58.50
2019-04-04T08:16:13.832Z,62.25
2019-04-04T08:18:45.979Z,60.50
2019-04-04T08:21:18.629Z,62.00
2019-04-04T08:23:51.638Z,60.75
2019-04-04T08:26:23.860Z,61.00
2019-04-04T08:28:56.381Z,57.00
2019-04-04T08:31:28.560Z,60.75
2019-04-04T08:34:00.691Z,61.50
2019-04-04T08:36:35.702Z,58.50
2019-04-04T08:39:09.421Z,57.50
2019-04-04T08:41:41.615Z,55.50
2019-04-04T08:44:13.768Z,56.00
2019-04-04T08:46:45.949Z,56.75
2019-04-04T08:49:18.091Z,57.75
2019-04-04T08:51:50.518Z,54.25
2019-04-04T08:54:22.652Z,56.25
2019-04-04T08:56:55.046Z,55.25
2019-04-04T08:59:27.183Z,56.00
2019-04-04T09:01:59.367Z,57.50
2019-04-04T09:04:31.521Z,52.50
2019-04-04T09:07:03.693Z,54.00
2019-04-04T09:09:35.950Z,54.25
2019-04-04T09:12:08.191Z,51.00
2019-04-04T09:14:41.243Z,52.75
2019-04-04T09:17:13.597Z,53.50
2019-04-04T09:19:45.758Z,55.25
2019-04-04T09:22:18.141Z,54.00
2019-04-04T09:24:50.264Z,54.25
2019-04-04T09:27:22.433Z,51.50
2019-04-04T09:29:54.567Z,51.25
2019-04-04T09:32:26.774Z,52.25
2019-04-04T09:34:59.381Z,49.75
2019-04-04T09:37:31.604Z,47.75
2019-04-04T09:40:04.402Z,51.50
2019-04-04T09:42:36.622Z,47.25
2019-04-04T09:45:10.152Z,51.25
2019-04-04T09:47:42.414Z,49.50
2019-04-04T09:50:14.861Z,48.25
2019-04-04T09:52:47.228Z,47.00
2019-04-04T09:55:19.359Z,46.50
2019-04-04T09:57:51.733Z,44.75
2019-04-04T10:00:24.392Z,46.00
2019-04-04T10:02:56.733Z,40.00
2019-04-04T10:05:28.841Z,45.50
2019-04-04T10:08:01.170Z,47.00
2019-04-04T10:10:33.299Z,45.50
2019-04-04T10:13:05.512Z,37.75
2019-04-04T10:15:38.893Z,48.00
2019-04-04T10:18:11.199Z,43.80
2019-04-04T10:20:43.456Z,45.40
2019-04-04T10:23:15.782Z,42.25
2019-04-04T10:25:47.988Z,41.00
2019-04-04T10:28:23.181Z,44.20
2019-04-04T10:30:53.949Z,40.50
2019-04-04T10:33:26.161Z,43.20
2019-04-04T10:35:58.384Z,40.40
2019-04-04T10:38:30.992Z,40.60
2019-04-04T10:41:03.566Z,39.80
2019-04-04T10:43:35.748Z,43.00
2019-04-04T10:46:07.918Z,38.80
2019-04-04T10:48:40.120Z,39.20
2019-04-04T10:51:12.402Z,38.20
2019-04-04T10:53:45.166Z,42.20
2019-04-04T10:56:17.340Z,36.80
2019-04-04T10:58:50.007Z,38.20
2019-04-04T11:01:22.183Z,39.40
2019-04-04T11:03:54.360Z,39.00
2019-04-04T11:06:26.529Z,34.60
2019-04-04T11:08:59.303Z,37.00
2019-04-04T11:11:31.458Z,34.40
2019-04-04T11:14:03.653Z,34.60
2019-04-04T11:16:35.809Z,30.20
2019-04-04T11:19:09.733Z,35.20
2019-04-04T11:21:41.780Z,35.40
2019-04-04T11:24:14.149Z,36.80
2019-04-04T11:26:46.319Z,34.20
2019-04-04T11:29:18.527Z,36.80
2019-04-04T11:31:50.681Z,37.40
2019-04-04T11:34:22.884Z,32.80
2019-04-04T11:36:55.053Z,32.40
2019-04-04T11:39:27.370Z,31.60
2019-04-04T11:41:59.787Z,27.20
2019-04-04T11:44:32.082Z,34.40
2019-04-04T11:47:04.336Z,31.80
2019-04-04T11:49:36.525Z,30.40
2019-04-04T11:52:08.704Z,28.80
2019-04-04T11:55:00.635Z,30.60
2019-04-04T11:57:33.187Z,26.20
2019-04-04T12:00:10.131Z,29.20
2019-04-04T12:02:42.330Z,26.20
2019-04-04T12:05:14.634Z,28.20
2019-04-04T12:07:47.262Z,23.60
2019-04-04T12:10:19.655Z,28.80
2019-04-04T12:12:51.811Z,27.00
2019-04-04T12:15:24.093Z,24.80
2019-04-04T12:17:56.274Z,25.60
2019-04-04T12:20:28.434Z,24.20
2019-04-04T12:23:00.604Z,27.00
2019-04-04T12:25:33.138Z,25.80
2019-04-04T12:28:05.406Z,25.80
2019-04-04T12:30:37.695Z,24.80
2019-04-04T12:33:09.857Z,30.20
2019-04-04T12:35:42.051Z,25.80
2019-04-04T12:38:14.202Z,27.00
2019-04-04T12:40:46.495Z,20.00
2019-04-04T12:43:18.925Z,16.20
2019-04-04T12:45:51.126Z,14.40
2019-04-04T12:48:23.318Z,13.40
2019-04-04T12:50:55.580Z,11.80
2019-04-04T12:53:28.747Z,10.80
2019-04-04T12:56:01.335Z,7.80
2019-04-04T12:58:33.771Z,9.60
2019-04-04T13:01:06.505Z,10.40
2019-04-04T13:03:38.858Z,8.80
2019-04-04T13:06:11.493Z,2.80
2019-04-04T13:08:45.037Z,7.00
2019-04-04T13:11:17.510Z,6.40
2019-04-04T13:13:49.850Z,8.60
2019-04-04T13:16:22.225Z,7.00
2019-04-04T13:18:54.537Z,6.80
2019-04-04T13:21:26.888Z,6.60
2019-04-04T13:23:59.232Z,6.60
2019-04-04T13:26:31.749Z,6.00
2019-04-04T13:29:04.490Z,6.00
2019-04-04T13:31:36.864Z,5.00
2019-04-04T13:34:09.213Z,5.40
2019-04-04T13:36:41.649Z,6.60
2019-04-04T13:39:13.983Z,5.40
2019-04-04T13:41:46.373Z,6.60
2019-04-04T13:44:18.954Z,4.20
2019-04-04T13:46:51.443Z,6.40
2019-04-04T13:49:23.807Z,5.00
2019-04-04T13:51:56.612Z,7.00
2019-04-04T13:54:29.274Z,6.00
2019-04-04T13:57:01.813Z,6.40
2019-04-04T13:59:34.453Z,7.00
2019-04-04T14:02:07.578Z,8.00
2019-04-04T14:04:39.912Z,6.00
2019-04-04T14:07:12.301Z,4.80
2019-04-04T14:09:45.264Z,6.40
2019-04-04T14:12:17.817Z,5.80
2019-04-04T14:14:50.136Z,4.60
2019-04-04T14:17:22.487Z,4.20
2019-04-04T14:19:54.953Z,5.80
2019-04-04T14:22:27.330Z,6.00
2019-04-04T14:24:59.674Z,7.00
2019-04-04T14:27:32.632Z,5.00
2019-04-04T14:30:05.983Z,5.80
2019-04-04T14:32:38.380Z,6.40
2019-04-04T14:35:11.255Z,8.00
2019-04-04T14:37:43.622Z,8.60
2019-04-04T14:40:16.322Z,9.80
2019-04-04T14:42:48.797Z,9.60
2019-04-04T14:45:21.677Z,28.00
2019-04-04T14:47:54.275Z,87.75
2019-04-04T14:50:28.076Z,115.50
2019-04-04T14:53:00.228Z,141.75
2019-04-04T14:55:32.416Z,187.00
2019-04-04T14:58:04.870Z,201.50
2019-04-04T15:00:37.126Z,208.75
2019-04-04T15:03:09.697Z,221.00
2019-04-04T15:05:42.255Z,207.50
2019-04-04T15:08:14.439Z,223.25
2019-04-04T15:10:47.601Z,240.25
2019-04-04T15:13:19.786Z,257.50
2019-04-04T15:16:17.276Z,249.50
2019-04-04T15:18:49.820Z,250.75
2019-04-04T15:21:22.044Z,251.50
2019-04-04T15:23:54.242Z,244.00
2019-04-04T15:26:26.761Z,208.25
2019-04-04T15:28:59.222Z,166.25
2019-04-04T15:31:31.385Z,132.75
2019-04-04T15:34:03.689Z,119.25
2019-04-04T15:36:35.959Z,110.75
2019-04-04T15:39:08.541Z,107.75
2019-04-04T15:41:40.983Z,119.75
2019-04-04T15:44:13.379Z,121.00
2019-04-04T15:46:45.712Z,116.25
2019-04-04T15:49:18.370Z,103.75
2019-04-04T15:51:50.539Z,115.75
2019-04-04T15:54:22.738Z,120.25
2019-04-04T15:56:54.918Z,128.75
2019-04-04T15:59:27.312Z,114.25
2019-04-04T16:01:59.606Z,117.00
2019-04-04T16:04:32.208Z,116.00
2019-04-04T16:07:06.002Z,115.75
2019-04-04T16:09:38.205Z,118.50
2019-04-04T16:12:10.356Z,112.50
2019-04-04T16:14:42.733Z,122.75
2019-04-04T16:17:14.868Z,116.75
2019-04-04T16:19:47.036Z,122.50
2019-04-04T16:22:19.333Z,112.00
2019-04-04T16:24:51.556Z,102.50
2019-04-04T16:27:23.885Z,106.50
2019-04-04T16:29:56.269Z,104.00
2019-04-04T16:32:28.452Z,110.00
2019-04-04T16:35:00.632Z,106.50
2019-04-04T16:37:32.763Z,102.00
2019-04-04T16:40:09.096Z,111.00
2019-04-04T16:42:40.475Z,110.50
2019-04-04T16:45:12.988Z,100.50
2019-04-04T16:47:45.314Z,111.00
2019-04-04T16:50:17.791Z,101.75
2019-04-04T16:52:50.068Z,100.50
2019-04-04T16:55:22.870Z,108.00
2019-04-04T16:57:55.603Z,106.00
2019-04-04T17:00:28.393Z,105.25
2019-04-04T17:03:00.658Z,97.25
2019-04-04T17:05:33.021Z,101.75
2019-04-04T17:08:05.289Z,104.00
2019-04-04T17:10:37.575Z,100.00
2019-04-04T17:13:09.726Z,100.25
2019-04-04T17:15:41.900Z,101.00
2019-04-04T17:18:14.294Z,92.00
2019-04-04T17:20:46.459Z,91.50
2019-04-04T17:23:18.629Z,90.00
2019-04-04T17:25:50.833Z,96.25
2019-04-04T17:28:22.961Z,97.50
2019-04-04T17:30:55.486Z,94.75
2019-04-04T17:33:27.661Z,85.50
2019-04-04T17:36:00.339Z,98.75
2019-04-04T17:38:33.614Z,90.75
2019-04-04T17:41:06.079Z,89.25
2019-04-04T17:43:39.130Z,93.50
2019-04-04T17:46:11.509Z,91.75
2019-04-04T17:48:43.960Z,87.75
2019-04-04T17:51:16.128Z,88.75
2019-04-04T17:53:48.302Z,84.50
2019-04-04T17:56:20.508Z,85.75
2019-04-04T17:58:52.690Z,85.75
2019-04-04T18:01:25.581Z,85.50
2019-04-04T18:03:57.867Z,86.00
2019-04-04T18:06:30.540Z,85.75
2019-04-04T18:09:02.785Z,79.50
2019-04-04T18:11:36.288Z,78.25
2019-04-04T18:14:08.687Z,83.25
2019-04-04T18:16:40.962Z,78.75
2019-04-04T18:19:13.135Z,80.25
2019-04-04T18:21:45.421Z,82.50
2019-04-04T18:24:17.630Z,79.25
2019-04-04T18:26:49.806Z,78.75
2019-04-04T18:29:22.431Z,77.50
2019-04-04T18:31:54.798Z,77.50
2019-04-04T18:34:27.389Z,73.00
2019-04-04T18:36:59.584Z,75.25
2019-04-04T18:39:31.824Z,77.00
2019-04-04T18:42:04.138Z,74.75
2019-04-04T18:44:36.283Z,76.00
2019-04-04T18:47:08.505Z,76.50
2019-04-04T18:49:40.903Z,72.75
2019-04-04T18:52:13.399Z,73.50
2019-04-04T18:54:45.568Z,72.00
2019-04-04T18:57:17.751Z,73.50
2019-04-04T18:59:49.916Z,72.50
2019-04-04T19:02:22.484Z,72.50
2019-04-04T19:04:54.723Z,71.50
2019-04-04T19:07:38.669Z,68.25
2019-04-04T19:10:01.525Z,72.75
2019-04-04T19:12:33.811Z,68.25
2019-04-04T19:15:07.891Z,70.75
2019-04-04T19:17:40.280Z,69.50
2019-04-04T19:20:13.151Z,68.50
2019-04-04T19:22:45.522Z,68.00
2019-04-04T19:25:17.950Z,68.75
2019-04-04T19:27:50.228Z,70.00
2019-04-04T19:30:22.784Z,69.25
2019-04-04T19:32:56.027Z,67.50
2019-04-04T19:35:28.399Z,67.50
2019-04-04T19:38:00.787Z,68.50
2019-04-04T19:40:33.047Z,68.50
2019-04-04T19:43:17.232Z,67.00
2019-04-04T19:45:39.222Z,67.00
2019-04-04T19:48:11.390Z,66.00
2019-04-04T19:50:43.662Z,66.25
2019-04-04T19:53:15.829Z,63.50
2019-04-04T19:55:48.518Z,64.00
2019-04-04T19:58:20.920Z,62.50
2019-04-04T20:00:53.623Z,60.25
2019-04-04T20:03:26.510Z,61.75
2019-04-04T20:05:59.651Z,63.00
2019-04-04T20:08:32.106Z,64.75
2019-04-04T20:11:04.282Z,60.50
2019-04-04T20:13:36.520Z,49.75
2019-04-04T20:16:08.915Z,61.75
2019-04-04T20:18:41.574Z,60.25
2019-04-04T20:21:13.706Z,63.75
2019-04-04T20:23:45.885Z,62.75
2019-04-04T20:26:18.610Z,65.75
2019-04-04T20:28:51.367Z,62.50
2019-04-04T20:31:23.533Z,63.00
2019-04-04T20:34:01.900Z,61.00
2019-04-04T20:36:29.762Z,58.50
2019-04-04T20:39:02.138Z,62.00
2019-04-04T20:41:35.720Z,59.50
2019-04-04T20:44:07.885Z,57.50
2019-04-04T20:46:40.522Z,55.00
2019-04-04T20:49:12.717Z,55.00
2019-04-04T20:51:44.863Z,55.50
2019-04-04T20:54:18.077Z,62.00
2019-04-04T20:56:50.201Z,55.50
2019-04-04T20:59:22.429Z,58.50
2019-04-04T21:01:54.666Z,56.25
2019-04-04T21:04:27.031Z,50.50
2019-04-04T21:06:59.203Z,52.50
2019-04-04T21:09:31.638Z,53.50
2019-04-04T21:12:03.864Z,51.00
2019-04-04T21:14:36.514Z,51.50
2019-04-04T21:17:08.689Z,50.75
2019-04-04T21:19:40.917Z,54.00
2019-04-04T21:22:26.534Z,54.50
2019-04-04T21:24:47.304Z,56.50
2019-04-04T21:27:19.556Z,54.25
2019-04-04T21:29:51.738Z,50.50
2019-04-04T21:32:23.898Z,52.00
2019-04-04T21:34:56.318Z,49.50
2019-04-04T21:37:28.477Z,52.00
2019-04-04T21:40:00.997Z,50.50
2019-04-04T21:42:33.631Z,48.00
2019-04-04T21:45:09.405Z,48.50
2019-04-04T21:47:41.854Z,44.50
2019-04-04T21:50:14.599Z,50.25
2019-04-04T21:52:47.240Z,46.60
2019-04-04T21:55:19.814Z,47.80
2019-04-04T21:57:52.526Z,51.40
2019-04-04T22:00:26.675Z,48.80
2019-04-04T22:03:00.797Z,46.00
2019-04-04T22:05:33.859Z,47.00
2019-04-04T22:08:06.288Z,46.00
2019-04-04T22:10:39.362Z,46.40
2019-04-04T22:13:12.026Z,46.40
2019-04-04T22:15:45.123Z,46.80
2019-04-04T22:18:17.821Z,41.80
2019-04-04T22:20:50.508Z,43.40
2019-04-04T22:23:23.056Z,46.60
2019-04-04T22:25:55.640Z,46.40
2019-04-04T22:28:28.315Z,45.60
2019-04-04T22:31:00.813Z,45.80
2019-04-04T22:33:33.297Z,40.80
2019-04-04T22:36:06.322Z,43.40
2019-04-04T22:38:39.069Z,42.60
2019-04-04T22:41:11.870Z,40.40
2019-04-04T22:43:44.659Z,44.60
2019-04-04T22:46:17.422Z,38.80
2019-04-04T22:48:49.972Z,37.20
2019-04-04T22:51:22.649Z,37.00
2019-04-04T22:53:55.342Z,37.60
2019-04-04T22:56:27.810Z,37.00
2019-04-04T22:59:00.529Z,38.80
2019-04-04T23:01:33.115Z,40.40
2019-04-04T23:04:05.613Z,36.40
2019-04-04T23:06:38.013Z,35.80
2019-04-04T23:09:10.384Z,36.60
2019-04-04T23:11:43.164Z,35.00
2019-04-04T23:14:15.972Z,34.20
2019-04-04T23:16:48.536Z,39.20
2019-04-04T23:19:20.841Z,34.60
2019-04-04T23:21:53.590Z,33.20
2019-04-04T23:24:26.386Z,29.40
2019-04-04T23:26:58.906Z,34.20
2019-04-04T23:29:31.546Z,31.20
2019-04-04T23:32:04.421Z,32.80
2019-04-04T23:34:37.228Z,32.00
2019-04-04T23:37:10.063Z,32.40
2019-04-04T23:39:42.481Z,32.80
2019-04-04T23:42:15.374Z,33.40
2019-04-04T23:44:59.958Z,33.80
2019-04-04T23:47:22.111Z,33.60
2019-04-04T23:49:54.709Z,31.80
2019-04-04T23:52:27.457Z,31.00
2019-04-04T23:55:00.080Z,30.40
2019-04-04T23:57:32.665Z,31.80
